Time;durP1;ratioP1;P1;durP2;ratioP2;P2;SDS_P1;SDS_P2;PMS_P1;PMS_P2;Temp;Humidity;BMP_temperature;BMP_pressure;BME280_temperature;BME280_humidity;BME280_pressure;Samples;Min_cycle;Max_cycle;Signal;HPM_P1;HPM_P2
2022/06/21 00:01:06;;;;;;;;;;;;;;;;;;10442125;28;19929;-68
2022/06/21 00:06:08;;;;;;;;;;;;;;;;;;10422117;28;19963;-68
2022/06/21 00:16:48;;;;;;;;;;;;;;;;;;8172811;28;22576;-68
2022/06/21 00:21:50;;;;;;;;;;;;;;;;;;10421518;28;20257;-69
2022/06/21 00:26:52;;;;;;;;;;;;;;;;;;10420596;28;19925;-68
2022/06/21 00:31:54;;;;;;;;;;;;;;;;;;10446015;28;20375;-68
2022/06/21 00:36:58;;;;;;;;;;;;;;;;;;10462192;28;19924;-68
2022/06/21 00:42:01;;;;;;;;;;;;;;;;;;10461289;28;19925;-69
2022/06/21 00:47:03;;;;;;;;;;;;;;;;;;10460807;28;20395;-69
2022/06/21 00:52:05;;;;;;;;;;;;;;;;;;10459320;28;20390;-69
2022/06/21 00:57:07;;;;;;;;;;;;;;;;;;10460242;28;19925;-68
2022/06/21 01:02:09;;;;;;;;;;;;;;;;;;10460845;28;19935;-69
2022/06/21 01:07:11;;;;;;;;;;;;;;;;;;10460686;28;19970;-69
2022/06/21 01:12:13;;;;;;;;;;;;;;;;;;10458532;28;20288;-69
2022/06/21 01:17:15;;;;;;;;;;;;;;;;;;10458359;28;20378;-68
2022/06/21 01:22:17;;;;;;;;;;;;;;;;;;10460412;28;19932;-68
2022/06/21 01:27:20;;;;;;;;;;;;;;;;;;10453825;28;19925;-68
2022/06/21 01:32:22;;;;;;;;;;;;;;;;;;10419749;28;19925;-68
2022/06/21 01:37:24;;;;;;;;;;;;;;;;;;10417912;28;19933;-69
2022/06/21 01:42:26;;;;;;;;;;;;;;;;;;10418274;28;19936;-68
2022/06/21 01:47:29;;;;;;;;;;;;;;;;;;10418505;28;20295;-68
2022/06/21 01:52:31;;;;;;;;;;;;;;;;;;10418933;28;19933;-68
2022/06/21 01:57:33;;;;;;;;;;;;;;;;;;10440949;28;19925;-68
2022/06/21 02:02:35;;;;;;;;;;;;;;;;;;10458686;28;19931;-70
2022/06/21 02:07:37;;;;;;;;;;;;;;;;;;10458162;28;19924;-69
2022/06/21 02:12:39;;;;;;;;;;;;;;;;;;10455257;28;19936;-69
2022/06/21 02:17:42;;;;;;;;;;;;;;;;;;10456224;28;20380;-68
2022/06/21 02:22:44;;;;;;;;;;;;;;;;;;10456154;28;20364;-68
2022/06/21 02:27:46;;;;;;;;;;;;;;;;;;10430034;28;19926;-68
2022/06/21 02:32:48;;;;;;;;;;;;;;;;;;10416932;28;20399;-68
2022/06/21 02:37:51;;;;;;;;;;;;;;;;;;10416332;28;19925;-68
2022/06/21 02:42:53;;;;;;;;;;;;;;;;;;10415545;28;19932;-68
2022/06/21 02:47:55;;;;;;;;;;;;;;;;;;10415370;28;20384;-68
2022/06/21 02:52:57;;;;;;;;;;;;;;;;;;10438906;28;19925;-68
2022/06/21 02:57:59;;;;;;;;;;;;;;;;;;10457120;28;19929;-68
2022/06/21 03:03:01;;;;;;;;;;;;;;;;;;10456351;28;19932;-68
2022/06/21 03:08:04;;;;;;;;;;;;;;;;;;10455964;28;19931;-68
2022/06/21 03:13:06;;;;;;;;;;;;;;;;;;10455105;28;19925;-68
2022/06/21 03:18:08;;;;;;;;;;;;;;;;;;10455957;28;20288;-68
2022/06/21 03:23:10;;;;;;;;;;;;;;;;;;10417253;28;19932;-68
2022/06/21 03:28:13;;;;;;;;;;;;;;;;;;10422804;28;19932;-68
2022/06/21 03:33:15;;;;;;;;;;;;;;;;;;10423802;28;19925;-68
2022/06/21 03:38:17;;;;;;;;;;;;;;;;;;10422530;28;20368;-69
2022/06/21 03:43:19;;;;;;;;;;;;;;;;;;10422265;28;19929;-68
2022/06/21 03:48:21;;;;;;;;;;;;;;;;;;10422735;28;19925;-68
2022/06/21 03:53:23;;;;;;;;;;;;;;;;;;10424434;28;19932;-69
2022/06/21 03:58:25;;;;;;;;;;;;;;;;;;10422464;28;19933;-69
2022/06/21 04:03:27;;;;;;;;;;;;;;;;;;10421484;28;19947;-68
2022/06/21 04:08:29;;;;;;;;;;;;;;;;;;10421931;28;19929;-69
2022/06/21 04:13:34;;;;;;;;;;;;;;;;;;10422924;28;19925;-68
2022/06/21 04:18:36;;;;;;;;;;;;;;;;;;10438708;28;19958;-68
2022/06/21 04:23:38;;;;;;;;;;;;;;;;;;10462760;28;19925;-68
2022/06/21 04:28:40;;;;;;;;;;;;;;;;;;10461773;28;20295;-68
2022/06/21 04:33:42;;;;;;;;;;;;;;;;;;10458898;28;19929;-68
2022/06/21 04:38:44;;;;;;;;;;;;;;;;;;10461386;28;19925;-68
2022/06/21 04:43:46;;;;;;;;;;;;;;;;;;10461231;28;19924;-69
2022/06/21 04:48:49;;;;;;;;;;;;;;;;;;10446887;28;19925;-69
2022/06/21 04:53:51;;;;;;;;;;;;;;;;;;10459252;28;20371;-69
2022/06/21 04:58:53;;;;;;;;;;;;;;;;;;10461380;28;19925;-68
2022/06/21 05:03:55;;;;;;;;;;;;;;;;;;10460602;28;20372;-68
2022/06/21 05:08:57;;;;;;;;;;;;;;;;;;10460057;28;20283;-68
2022/06/21 05:14:03;;;;;;;;;;;;;;;;;;10458277;28;19979;-68
2022/06/21 05:19:09;;;;;;;;;;;;;;;;;;10421667;28;20291;-68
2022/06/21 05:24:11;;;;;;;;;;;;;;;;;;10420544;28;19925;-68
2022/06/21 05:29:13;;;;;;;;;;;;;;;;;;10419013;28;19925;-68
2022/06/21 05:34:15;;;;;;;;;;;;;;;;;;10421005;28;19925;-68
2022/06/21 05:39:20;;;;;;;;;;;;;;;;;;10418621;28;19932;-69
2022/06/21 05:44:22;;;;;;;;;;;;;;;;;;10417741;28;19929;-69
2022/06/21 05:49:24;;;;;;;;;;;;;;;;;;10417614;28;19929;-69
2022/06/21 05:54:27;;;;;;;;;;;;;;;;;;10418463;28;20535;-69
2022/06/21 05:59:29;;;;;;;;;;;;;;;;;;10422734;28;19925;-69
2022/06/21 06:04:31;;;;;;;;;;;;;;;;;;10458703;28;20004;-69
2022/06/21 06:09:34;;;;;;;;;;;;;;;;;;10458507;28;19924;-69
2022/06/21 06:14:37;;;;;;;;;;;;;;;;;;10455550;28;19925;-68
2022/06/21 06:19:39;;;;;;;;;;;;;;;;;;10457774;28;20101;-68
2022/06/21 06:24:41;;;;;;;;;;;;;;;;;;10458194;28;19924;-68
2022/06/21 06:29:43;;;;;;;;;;;;;;;;;;10436741;28;20392;-69
2022/06/21 06:34:45;;;;;;;;;;;;;;;;;;10417782;28;19925;-68
2022/06/21 06:39:47;;;;;;;;;;;;;;;;;;10416525;28;19931;-69
2022/06/21 06:44:49;;;;;;;;;;;;;;;;;;10415676;28;20273;-68
2022/06/21 06:49:51;;;;;;;;;;;;;;;;;;10416945;28;19931;-68
2022/06/21 06:54:53;;;;;;;;;;;;;;;;;;10417244;28;19925;-68
2022/06/21 06:59:56;;;;;;;;;;;;;;;;;;10416103;28;19931;-68
2022/06/21 07:04:58;;;;;;;;;;;;;;;;;;10415800;28;19932;-69
2022/06/21 07:10:00;;;;;;;;;;;;;;;;;;10416290;28;20284;-68
2022/06/21 07:15:02;;;;;;;;;;;;;;;;;;10416397;28;19925;-68
2022/06/21 07:20:04;;;;;;;;;;;;;;;;;;10415905;28;19925;-68
2022/06/21 07:25:06;;;;;;;;;;;;;;;;;;10415872;28;20373;-68
2022/06/21 07:30:08;;;;;;;;;;;;;;;;;;10417247;28;19932;-68
2022/06/21 07:35:11;;;;;;;;;;;;;;;;;;10415814;28;19926;-68
2022/06/21 07:40:13;;;;;;;;;;;;;;;;;;10428344;28;19925;-69
2022/06/21 07:45:15;;;;;;;;;;;;;;;;;;10456188;28;19931;-69
2022/06/21 07:50:17;;;;;;;;;;;;;;;;;;10436394;28;19925;-69
2022/06/21 07:55:19;;;;;;;;;;;;;;;;;;10456154;28;19971;-68
2022/06/21 08:00:21;;;;;;;;;;;;;;;;;;10456562;28;20003;-68
2022/06/21 08:10:44;;;;;;;;;;;;;;;;;;10456734;28;19925;-68
2022/06/21 08:15:46;;;;;;;;;;;;;;;;;;10462904;28;19924;-69
2022/06/21 08:20:48;;;;;;;;;;;;;;;;;;10462130;28;19925;-69
2022/06/21 08:25:50;;;;;;;;;;;;;;;;;;10462681;28;19929;-69
2022/06/21 08:30:52;;;;;;;;;;;;;;;;;;10461449;28;19925;-69
2022/06/21 08:35:54;;;;;;;;;;;;;;;;;;10462402;28;19970;-69
2022/06/21 08:40:56;;;;;;;;;;;;;;;;;;10462163;28;19931;-69
2022/06/21 08:45:58;;;;;;;;;;;;;;;;;;10461930;28;19924;-69
2022/06/21 08:51:01;;;;;;;;;;;;;;;;;;10461156;28;20388;-69
2022/06/21 08:56:03;;;;;;;;;;;;;;;;;;10460206;28;19925;-69
2022/06/21 09:01:05;;;;;;;;;;;;;;;;;;10460539;28;19932;-69
2022/06/21 09:06:07;;;;;;;;;;;;;;;;;;10460087;28;19925;-63
2022/06/21 09:11:09;;;;;;;;;;;;;;;;;;10460961;28;19933;-63
2022/06/21 09:16:12;;;;;;;;;;;;;;;;;;10460209;28;20288;-62
2022/06/21 09:21:14;;;;;;;;;;;;;;;;;;10459640;28;19925;-62
2022/06/21 09:26:16;;;;;;;;;;;;;;;;;;10459728;28;19948;-62
2022/06/21 09:31:21;;;;;;;;;;;;;;;;;;10429049;22;19925;-62
2022/06/21 09:36:23;;;;;;;;;;;;;;;;;;10418837;28;19929;-62
2022/06/21 09:41:25;;;;;;;;;;;;;;;;;;10417965;28;20265;-62
2022/06/21 09:46:27;;;;;;;;;;;;;;;;;;10417728;28;20295;-62
2022/06/21 09:51:29;;;;;;;;;;;;;;;;;;10418212;28;19925;-62
2022/06/21 09:56:31;;;;;;;;;;;;;;;;;;10418014;28;19936;-62
2022/06/21 10:01:33;;;;;;;;;;;;;;;;;;10417169;28;20380;-62
2022/06/21 10:06:35;;;;;;;;;;;;;;;;;;10416929;28;19925;-62
2022/06/21 10:11:37;;;;;;;;;;;;;;;;;;10417438;28;20019;-63
2022/06/21 10:16:39;;;;;;;;;;;;;;;;;;10416811;28;19925;-62
2022/06/21 10:21:42;;;;;;;;;;;;;;;;;;10417009;28;19929;-63
2022/06/21 10:26:44;;;;;;;;;;;;;;;;;;10416709;28;19925;-63
2022/06/21 10:31:46;;;;;;;;;;;;;;;;;;10416824;28;19926;-63
2022/06/21 10:36:48;;;;;;;;;;;;;;;;;;10416031;28;19926;-63
2022/06/21 10:47:11;;;;;;;;;;;;;;;;;;10416276;28;19929;-63
2022/06/21 10:52:13;;;;;;;;;;;;;;;;;;10416231;28;19925;-63
2022/06/21 10:57:15;;;;;;;;;;;;;;;;;;10425314;28;19959;-63
2022/06/21 11:02:17;;;;;;;;;;;;;;;;;;10452467;28;20008;-63
2022/06/21 11:07:20;;;;;;;;;;;;;;;;;;10415701;28;19971;-63
2022/06/21 11:17:42;;;;;;;;;;;;;;;;;;10439259;28;19931;-64
2022/06/21 11:22:44;;;;;;;;;;;;;;;;;;10457193;28;19924;-70
2022/06/21 11:27:47;;;;;;;;;;;;;;;;;;10455774;28;20403;-69
2022/06/21 11:32:49;;;;;;;;;;;;;;;;;;10456683;28;19932;-69
2022/06/21 11:37:51;;;;;;;;;;;;;;;;;;10447592;28;19924;-70
2022/06/21 11:42:53;;;;;;;;;;;;;;;;;;10455489;28;20292;-62
2022/06/21 11:47:55;;;;;;;;;;;;;;;;;;10458652;28;19925;-69
2022/06/21 11:52:57;;;;;;;;;;;;;;;;;;10447070;28;20372;-69
2022/06/21 11:57:59;;;;;;;;;;;;;;;;;;10431527;28;19932;-69
2022/06/21 12:03:02;;;;;;;;;;;;;;;;;;10421826;28;20387;-69
2022/06/21 12:08:04;;;;;;;;;;;;;;;;;;10423244;28;19953;-69
2022/06/21 12:13:07;;;;;;;;;;;;;;;;;;10428130;28;19925;-69
2022/06/21 12:18:14;;;;;;;;;;;;;;;;;;10423047;28;19925;-69
2022/06/21 12:23:16;;;;;;;;;;;;;;;;;;10426310;28;20284;-70
2022/06/21 12:28:18;;;;;;;;;;;;;;;;;;10451621;28;19932;-69
2022/06/21 12:33:36;;;;;;;;;;;;;;;;;;10462625;28;19928;-69
2022/06/21 12:38:38;;;;;;;;;;;;;;;;;;10455056;28;19925;-69
2022/06/21 12:43:40;;;;;;;;;;;;;;;;;;10458831;28;19931;-69
2022/06/21 12:48:42;;;;;;;;;;;;;;;;;;10461033;28;19925;-70
2022/06/21 12:53:47;;;;;;;;;;;;;;;;;;10459904;28;20284;-62
2022/06/21 12:58:50;;;;;;;;;;;;;;;;;;10460889;28;19974;-62
2022/06/21 13:03:52;;;;;;;;;;;;;;;;;;10460710;28;19929;-62
2022/06/21 13:08:54;;;;;;;;;;;;;;;;;;10461076;28;19925;-62
2022/06/21 13:13:56;;;;;;;;;;;;;;;;;;10461028;28;19932;-61
2022/06/21 13:18:58;;;;;;;;;;;;;;;;;;10460824;28;19931;-62
2022/06/21 13:24:00;;;;;;;;;;;;;;;;;;10460007;28;19924;-62
2022/06/21 13:29:02;;;;;;;;;;;;;;;;;;10459533;28;19936;-62
2022/06/21 13:34:06;;;;;;;;;;;;;;;;;;10459574;28;20368;-62
2022/06/21 13:39:09;;;;;;;;;;;;;;;;;;10459984;28;19931;-62
2022/06/21 13:44:11;;;;;;;;;;;;;;;;;;10459177;28;20291;-62
2022/06/21 13:49:13;;;;;;;;;;;;;;;;;;10458906;28;19928;-62
2022/06/21 13:54:16;;;;;;;;;;;;;;;;;;10458758;28;19925;-62
2022/06/21 13:59:18;;;;;;;;;;;;;;;;;;10459148;28;19925;-62
2022/06/21 14:04:20;;;;;;;;;;;;;;;;;;10458974;28;19932;-62
2022/06/21 14:09:22;;;;;;;;;;;;;;;;;;10457437;28;19928;-62
2022/06/21 14:14:24;;;;;;;;;;;;;;;;;;10458610;28;19928;-62
2022/06/21 14:19:26;;;;;;;;;;;;;;;;;;10457768;28;20391;-62
2022/06/21 14:24:29;;;;;;;;;;;;;;;;;;10458272;28;19925;-62
2022/06/21 14:29:31;;;;;;;;;;;;;;;;;;10457152;28;19931;-62
2022/06/21 14:34:34;;;;;;;;;;;;;;;;;;10457921;28;19932;-61
2022/06/21 14:39:37;;;;;;;;;;;;;;;;;;10457781;28;19925;-62
2022/06/21 14:44:39;;;;;;;;;;;;;;;;;;10418139;28;19932;-62
2022/06/21 14:49:41;;;;;;;;;;;;;;;;;;10412490;28;19940;-61
2022/06/21 14:54:44;;;;;;;;;;;;;;;;;;10422564;28;20376;-62
2022/06/21 14:59:46;;;;;;;;;;;;;;;;;;10414036;28;20410;-62
2022/06/21 15:04:48;;;;;;;;;;;;;;;;;;10408506;28;20315;-62
2022/06/21 15:09:50;;;;;;;;;;;;;;;;;;10423772;28;19929;-62
2022/06/21 15:14:52;;;;;;;;;;;;;;;;;;10426077;28;19936;-61
2022/06/21 15:19:55;;;;;;;;;;;;;;;;;;10404767;28;19936;-62
2022/06/21 15:24:57;;;;;;;;;;;;;;;;;;10415094;28;20394;-62
2022/06/21 15:30:02;;;;;;;;;;;;;;;;;;10416175;28;20755;-63
2022/06/21 15:35:04;;;;;;;;;;;;;;;;;;10416151;28;19944;-62
2022/06/21 15:40:06;;;;;;;;;;;;;;;;;;10416979;28;20451;-62
2022/06/21 15:45:08;;;;;;;;;;;;;;;;;;10415888;28;19929;-62
2022/06/21 15:50:13;;;;;;;;;;;;;;;;;;10417204;28;19929;-62
2022/06/21 15:55:16;;;;;;;;;;;;;;;;;;10415321;28;20537;-63
2022/06/21 16:00:18;;;;;;;;;;;;;;;;;;10417155;28;19958;-62
2022/06/21 16:05:20;;;;;;;;;;;;;;;;;;10414953;28;19925;-62
2022/06/21 16:10:22;;;;;;;;;;;;;;;;;;10416320;28;19940;-62
2022/06/21 16:15:24;;;;;;;;;;;;;;;;;;10435154;28;19929;-62
2022/06/21 16:20:26;;;;;;;;;;;;;;;;;;10416039;28;19929;-62
2022/06/21 16:25:28;;;;;;;;;;;;;;;;;;10414084;28;20384;-62
2022/06/21 16:30:31;;;;;;;;;;;;;;;;;;10413142;28;19929;-62
2022/06/21 16:35:33;;;;;;;;;;;;;;;;;;10416232;28;19941;-62
2022/06/21 16:45:56;;;;;;;;;;;;;;;;;;10412041;28;19945;-62
2022/06/21 16:50:58;;;;;;;;;;;;;;;;;;10413191;28;20376;-62
2022/06/21 16:56:02;;;;;;;;;;;;;;;;;;10413551;28;19940;-62
2022/06/21 17:01:04;;;;;;;;;;;;;;;;;;10413335;28;19940;-62
2022/06/21 17:06:06;;;;;;;;;;;;;;;;;;10413147;28;19936;-62
2022/06/21 17:11:27;;;;;;;;;;;;;;;;;;10413194;28;20365;-62
2022/06/21 17:16:29;;;;;;;;;;;;;;;;;;10419102;28;20369;-62
2022/06/21 17:21:31;;;;;;;;;;;;;;;;;;10419329;28;20016;-61
2022/06/21 17:26:33;;;;;;;;;;;;;;;;;;10419145;28;19925;-60
2022/06/21 17:31:35;;;;;;;;;;;;;;;;;;10418355;28;19926;-61
2022/06/21 17:36:38;;;;;;;;;;;;;;;;;;10418941;28;20000;-62
2022/06/21 17:41:40;;;;;;;;;;;;;;;;;;10418051;28;20380;-61
2022/06/21 17:46:42;;;;;;;;;;;;;;;;;;10417556;28;20311;-61
2022/06/21 17:51:44;;;;;;;;;;;;;;;;;;10418298;28;19957;-61
2022/06/21 17:56:46;;;;;;;;;;;;;;;;;;10417443;28;19925;-61
2022/06/21 18:01:50;;;;;;;;;;;;;;;;;;10416772;28;20122;-61
2022/06/21 18:06:52;;;;;;;;;;;;;;;;;;10416988;28;19925;-61
2022/06/21 18:12:01;;;;;;;;;;;;;;;;;;10436982;28;19931;-61
2022/06/21 18:17:03;;;;;;;;;;;;;;;;;;10457625;28;19924;-61
2022/06/21 18:22:06;;;;;;;;;;;;;;;;;;10458285;28;19925;-61
2022/06/21 18:27:08;;;;;;;;;;;;;;;;;;10457935;28;19924;-61
2022/06/21 18:32:10;;;;;;;;;;;;;;;;;;10456313;28;19932;-61
2022/06/21 18:37:12;;;;;;;;;;;;;;;;;;10457049;28;19932;-61
2022/06/21 18:42:14;;;;;;;;;;;;;;;;;;10457120;28;19925;-61
2022/06/21 18:47:16;;;;;;;;;;;;;;;;;;10456939;28;20283;-61
2022/06/21 18:52:18;;;;;;;;;;;;;;;;;;10457035;28;19924;-61
2022/06/21 18:57:20;;;;;;;;;;;;;;;;;;10456781;28;19957;-61
2022/06/21 19:02:22;;;;;;;;;;;;;;;;;;10457121;28;19935;-61
2022/06/21 19:12:46;;;;;;;;;;;;;;;;;;10456418;28;20295;-61
2022/06/21 19:17:48;;;;;;;;;;;;;;;;;;10455135;28;19999;-60
2022/06/21 19:22:50;;;;;;;;;;;;;;;;;;10456254;28;19925;-61
2022/06/21 19:27:52;;;;;;;;;;;;;;;;;;10455845;28;20280;-61
2022/06/21 19:32:54;;;;;;;;;;;;;;;;;;10456749;28;19925;-61
2022/06/21 19:37:56;;;;;;;;;;;;;;;;;;10424834;28;19936;-66
2022/06/21 19:42:58;;;;;;;;;;;;;;;;;;10454030;28;20280;-66
2022/06/21 19:48:00;;;;;;;;;;;;;;;;;;10456285;28;19924;-66
2022/06/21 19:53:03;;;;;;;;;;;;;;;;;;10454573;28;19929;-66
2022/06/21 19:58:05;;;;;;;;;;;;;;;;;;10444099;28;19931;-67
2022/06/21 20:03:07;;;;;;;;;;;;;;;;;;10414246;28;20407;-66
2022/06/21 20:08:09;;;;;;;;;;;;;;;;;;10419416;28;19925;-66
2022/06/21 20:13:11;;;;;;;;;;;;;;;;;;10422629;28;19925;-66
2022/06/21 20:18:13;;;;;;;;;;;;;;;;;;10423057;28;19929;-66
2022/06/21 20:23:15;;;;;;;;;;;;;;;;;;10451284;28;19955;-66
2022/06/21 20:28:17;;;;;;;;;;;;;;;;;;10462416;28;19931;-66
2022/06/21 20:33:19;;;;;;;;;;;;;;;;;;10462036;28;19925;-66
2022/06/21 20:38:22;;;;;;;;;;;;;;;;;;10459194;28;19932;-66
2022/06/21 20:43:24;;;;;;;;;;;;;;;;;;10461828;28;20411;-66
2022/06/21 20:48:26;;;;;;;;;;;;;;;;;;10451582;28;20257;-66
2022/06/21 20:53:29;;;;;;;;;;;;;;;;;;10450856;28;19932;-66
2022/06/21 20:58:31;;;;;;;;;;;;;;;;;;10461159;28;19924;-65
2022/06/21 21:03:33;;;;;;;;;;;;;;;;;;10461030;28;19935;-67
2022/06/21 21:08:36;;;;;;;;;;;;;;;;;;10461244;28;20004;-67
2022/06/21 21:13:39;;;;;;;;;;;;;;;;;;10457442;28;19925;-67
2022/06/21 21:18:42;;;;;;;;;;;;;;;;;;10457892;28;20376;-65
2022/06/21 21:23:44;;;;;;;;;;;;;;;;;;10460082;28;19929;-65
2022/06/21 21:28:46;;;;;;;;;;;;;;;;;;10459794;28;19932;-65
2022/06/21 21:33:51;;;;;;;;;;;;;;;;;;10457769;28;19932;-65
2022/06/21 21:38:53;;;;;;;;;;;;;;;;;;10455924;28;19955;-65
2022/06/21 21:43:56;;;;;;;;;;;;;;;;;;10447810;22;19925;-64
2022/06/21 21:48:58;;;;;;;;;;;;;;;;;;10450937;28;19925;-64
2022/06/21 21:54:00;;;;;;;;;;;;;;;;;;10458949;28;19925;-63
2022/06/21 21:59:02;;;;;;;;;;;;;;;;;;10456986;28;20364;-64
2022/06/21 22:04:05;;;;;;;;;;;;;;;;;;10457653;28;20299;-64
2022/06/21 22:09:07;;;;;;;;;;;;;;;;;;10456909;28;19956;-64
2022/06/21 22:14:09;;;;;;;;;;;;;;;;;;10425258;28;20384;-64
2022/06/21 22:19:11;;;;;;;;;;;;;;;;;;10452776;28;19925;-64
2022/06/21 22:24:13;;;;;;;;;;;;;;;;;;10458022;28;19925;-63
2022/06/21 22:29:15;;;;;;;;;;;;;;;;;;10456395;28;19948;-64
2022/06/21 22:34:18;;;;;;;;;;;;;;;;;;10455569;28;19925;-64
2022/06/21 22:39:20;;;;;;;;;;;;;;;;;;10455764;28;20391;-64
2022/06/21 22:44:22;;;;;;;;;;;;;;;;;;10443296;28;19926;-64
2022/06/21 22:49:24;;;;;;;;;;;;;;;;;;10415687;28;20396;-63
2022/06/21 22:54:26;;;;;;;;;;;;;;;;;;10415669;28;20407;-64
2022/06/21 22:59:33;;;;;;;;;;;;;;;;;;10417294;28;19936;-63
2022/06/21 23:04:35;;;;;;;;;;;;;;;;;;10416017;28;19929;-64
2022/06/21 23:09:37;;;;;;;;;;;;;;;;;;10415852;28;19925;-63
2022/06/21 23:14:41;;;;;;;;;;;;;;;;;;10430832;28;20398;-63
2022/06/21 23:19:44;;;;;;;;;;;;;;;;;;10453508;28;20402;-64
2022/06/21 23:24:46;;;;;;;;;;;;;;;;;;10456834;28;19925;-64
2022/06/21 23:29:48;;;;;;;;;;;;;;;;;;10456151;28;19932;-63
2022/06/21 23:34:50;;;;;;;;;;;;;;;;;;10428375;28;19925;-64
2022/06/21 23:39:52;;;;;;;;;;;;;;;;;;10441945;28;19931;-64
2022/06/21 23:44:54;;;;;;;;;;;;;;;;;;10427876;28;20015;-64
2022/06/21 23:49:56;;;;;;;;;;;;;;;;;;10422477;28;19932;-64
2022/06/21 23:54:58;;;;;;;;;;;;;;;;;;10433139;28;19932;-63
